createdAt,value
2022-11-18T00:00:46.771Z,998.13
2022-11-18T00:02:15.966Z,998.13
2022-11-18T00:02:39.858Z,998.16
2022-11-18T00:03:40.404Z,998.17
2022-11-18T00:05:00.069Z,998.19
2022-11-18T00:05:40.725Z,998.16
2022-11-18T00:06:48.278Z,998.18
2022-11-18T00:07:41.890Z,998.11
2022-11-18T00:08:48.936Z,998.12
2022-11-18T00:09:38.908Z,998.11
2022-11-18T00:10:41.170Z,998.11
2022-11-18T00:11:54.488Z,998.05
2022-11-18T00:12:42.304Z,998.04
2022-11-18T00:13:38.013Z,998.05
2022-11-18T00:14:43.960Z,998.08
2022-11-18T00:15:52.257Z,998.07
2022-11-18T00:16:53.392Z,998.03
2022-11-18T00:17:38.249Z,998.08
2022-11-18T00:18:43.783Z,998.13
2022-11-18T00:19:52.284Z,998.03
2022-11-18T00:20:51.577Z,998.16
2022-11-18T00:21:42.371Z,998.14
2022-11-18T00:22:44.522Z,998.15
2022-11-18T00:23:37.270Z,998.16
2022-11-18T00:24:53.137Z,998.15
2022-11-18T00:25:40.141Z,998.13
2022-11-18T00:26:39.841Z,998.16
2022-11-18T00:27:49.268Z,998.17
2022-11-18T00:28:45.765Z,998.14
2022-11-18T00:29:44.877Z,998.08
2022-11-18T00:30:59.837Z,998.14
2022-11-18T00:31:33.524Z,998.15
2022-11-18T00:32:44.589Z,998.17
2022-11-18T00:33:38.145Z,998.18
2022-11-18T00:34:42.759Z,998.15
2022-11-18T00:35:51.269Z,998.18
2022-11-18T00:36:39.908Z,998.19
2022-11-18T00:37:46.362Z,998.23
2022-11-18T00:38:48.270Z,998.20
2022-11-18T00:39:34.703Z,998.20
2022-11-18T00:40:39.322Z,998.23
2022-11-18T00:41:45.774Z,998.28
2022-11-18T00:42:50.905Z,998.21
2022-11-18T00:43:45.539Z,998.25
2022-11-18T00:44:44.781Z,998.26
2022-11-18T00:45:56.658Z,998.27
2022-11-18T00:46:38.031Z,998.17
2022-11-18T00:47:43.052Z,998.26
2022-11-18T00:49:06.766Z,998.23
2022-11-18T00:49:53.613Z,998.23
2022-11-18T00:50:34.264Z,998.16
2022-11-18T00:51:50.267Z,998.24
2022-11-18T00:53:03.673Z,998.24
2022-11-18T00:53:49.272Z,998.20
2022-11-18T00:54:47.091Z,998.19
2022-11-18T00:55:48.266Z,998.21
2022-11-18T00:56:54.582Z,998.24
2022-11-18T00:57:52.438Z,998.27
2022-11-18T00:58:43.228Z,998.18
2022-11-18T00:59:50.266Z,998.23
2022-11-18T01:00:51.323Z,998.22
2022-11-18T01:01:41.350Z,998.23
2022-11-18T01:02:48.766Z,998.24
2022-11-18T01:03:46.264Z,998.20
2022-11-18T01:04:47.058Z,998.20
2022-11-18T01:05:43.581Z,998.18
2022-11-18T01:06:53.202Z,998.16
2022-11-18T01:07:49.771Z,998.20
2022-11-18T01:09:01.729Z,998.18
2022-11-18T01:09:52.311Z,998.20
2022-11-18T01:10:46.766Z,998.23
2022-11-18T01:11:40.248Z,998.25
2022-11-18T01:12:52.947Z,998.22
2022-11-18T01:13:53.978Z,998.22
2022-11-18T01:14:49.783Z,998.20
2022-11-18T01:16:01.882Z,998.18
2022-11-18T01:16:45.193Z,998.18
2022-11-18T01:17:37.769Z,998.16
2022-11-18T01:18:55.775Z,998.21
2022-11-18T01:19:54.630Z,998.21
2022-11-18T01:20:46.241Z,998.16
2022-11-18T01:21:40.964Z,998.16
2022-11-18T01:22:38.058Z,998.21
2022-11-18T01:23:54.767Z,998.23
2022-11-18T01:24:33.368Z,998.28
2022-11-18T01:25:55.706Z,998.24
2022-11-18T01:27:00.770Z,998.28
2022-11-18T01:27:50.268Z,998.24
2022-11-18T01:28:59.269Z,998.25
2022-11-18T01:29:41.182Z,998.15
2022-11-18T01:30:44.160Z,998.25
2022-11-18T01:32:09.072Z,998.25
2022-11-18T01:32:56.263Z,998.20
2022-11-18T01:33:42.743Z,998.28
2022-11-18T01:34:45.213Z,998.29
2022-11-18T01:35:42.767Z,998.25
2022-11-18T01:36:34.273Z,998.38
2022-11-18T01:37:45.129Z,998.31
2022-11-18T01:38:42.779Z,998.33
2022-11-18T01:39:44.945Z,998.35
2022-11-18T01:40:37.767Z,998.29
2022-11-18T01:41:49.768Z,998.32
2022-11-18T01:42:50.894Z,998.34
2022-11-18T01:43:30.320Z,998.38
2022-11-18T01:44:38.722Z,998.38
2022-11-18T01:45:42.109Z,998.36
2022-11-18T01:46:40.895Z,998.33
2022-11-18T01:47:34.646Z,998.37
2022-11-18T01:48:47.245Z,998.32
2022-11-18T01:49:42.848Z,998.34
2022-11-18T01:50:35.688Z,998.33
2022-11-18T01:51:45.529Z,998.40
2022-11-18T01:52:51.458Z,998.34
2022-11-18T01:53:51.585Z,998.32
2022-11-18T01:54:45.556Z,998.36
2022-11-18T01:55:31.997Z,998.29
2022-11-18T01:56:37.270Z,998.33
2022-11-18T01:57:44.136Z,998.33
2022-11-18T01:58:29.910Z,998.37
2022-11-18T01:59:45.480Z,998.33
2022-11-18T02:00:36.584Z,998.30
2022-11-18T02:01:41.086Z,998.34
2022-11-18T02:02:45.498Z,998.38
2022-11-18T02:03:38.440Z,998.33
2022-11-18T02:04:40.286Z,998.29
2022-11-18T02:05:41.011Z,998.33
2022-11-18T02:06:41.849Z,998.27
2022-11-18T02:07:45.164Z,998.33
2022-11-18T02:08:49.326Z,998.26
2022-11-18T02:09:48.619Z,998.33
2022-11-18T02:10:37.268Z,998.30
2022-11-18T02:11:36.680Z,998.36
2022-11-18T02:12:35.016Z,998.34
2022-11-18T02:13:40.352Z,998.38
2022-11-18T02:14:40.356Z,998.40
2022-11-18T02:15:41.773Z,998.35
2022-11-18T02:16:39.255Z,998.34
2022-11-18T02:17:39.767Z,998.33
2022-11-18T02:18:46.731Z,998.33
2022-11-18T02:19:31.607Z,998.31
2022-11-18T02:20:39.371Z,998.32
2022-11-18T02:21:38.768Z,998.37
2022-11-18T02:22:38.274Z,998.37
2022-11-18T02:23:42.579Z,998.40
2022-11-18T02:24:45.234Z,998.43
2022-11-18T02:25:40.634Z,998.36
2022-11-18T02:26:43.205Z,998.41
2022-11-18T02:27:33.993Z,998.47
2022-11-18T02:28:52.839Z,998.39
2022-11-18T02:29:48.352Z,998.41
2022-11-18T02:30:37.910Z,998.39
2022-11-18T02:31:36.168Z,998.41
2022-11-18T02:32:44.371Z,998.37
2022-11-18T02:33:42.529Z,998.38
2022-11-18T02:34:33.933Z,998.36
2022-11-18T02:35:43.363Z,998.37
2022-11-18T02:37:00.570Z,998.37
2022-11-18T02:37:44.711Z,998.43
2022-11-18T02:38:41.845Z,998.38
2022-11-18T02:39:48.714Z,998.43
2022-11-18T02:40:51.185Z,998.42
2022-11-18T02:41:41.969Z,998.44
2022-11-18T02:42:29.893Z,998.47
2022-11-18T02:43:41.266Z,998.48
2022-11-18T02:44:45.779Z,998.48
2022-11-18T02:45:44.726Z,998.51
2022-11-18T02:46:43.845Z,998.46
2022-11-18T02:47:42.320Z,998.51
2022-11-18T02:48:39.045Z,998.48
2022-11-18T02:49:45.607Z,998.43
2022-11-18T02:50:38.958Z,998.42
2022-11-18T02:51:42.576Z,998.47
2022-11-18T02:52:38.156Z,998.43
2022-11-18T02:53:36.006Z,998.45
2022-11-18T02:54:40.011Z,998.43
2022-11-18T02:55:42.377Z,998.45
2022-11-18T02:56:49.138Z,998.55
2022-11-18T02:57:40.337Z,998.44
2022-11-18T02:58:45.668Z,998.47
2022-11-18T02:59:37.586Z,998.39
2022-11-18T03:00:40.461Z,998.47
2022-11-18T03:01:49.409Z,998.41
2022-11-18T03:02:37.606Z,998.39
2022-11-18T03:03:44.784Z,998.37
2022-11-18T03:04:37.514Z,998.38
2022-11-18T03:05:55.238Z,998.40
2022-11-18T03:06:43.161Z,998.39
2022-11-18T03:07:39.770Z,998.38
2022-11-18T03:08:46.044Z,998.37
2022-11-18T03:09:45.537Z,998.29
2022-11-18T03:10:37.249Z,998.35
2022-11-18T03:11:42.602Z,998.35
2022-11-18T03:12:47.807Z,998.25
2022-11-18T03:13:59.809Z,998.33
2022-11-18T03:15:04.921Z,998.32
2022-11-18T03:15:37.486Z,998.29
2022-11-18T03:16:50.089Z,998.33
2022-11-18T03:17:38.427Z,998.30
2022-11-18T03:18:35.766Z,998.34
2022-11-18T03:19:42.634Z,998.30
2022-11-18T03:20:37.314Z,998.31
2022-11-18T03:21:40.495Z,998.26
2022-11-18T03:22:34.365Z,998.36
2022-11-18T03:23:36.413Z,998.33
2022-11-18T03:24:31.707Z,998.35
2022-11-18T03:25:43.502Z,998.40
2022-11-18T03:26:36.847Z,998.39
2022-11-18T03:27:59.378Z,998.40
2022-11-18T03:28:38.391Z,998.43
2022-11-18T03:29:45.261Z,998.46
2022-11-18T03:30:37.586Z,998.43
2022-11-18T03:31:49.166Z,998.45
2022-11-18T03:32:44.055Z,998.47
2022-11-18T03:33:38.018Z,998.48
2022-11-18T03:34:47.348Z,998.50
2022-11-18T03:35:42.437Z,998.51
2022-11-18T03:36:48.846Z,998.59
2022-11-18T03:37:34.971Z,998.61
2022-11-18T03:38:33.857Z,998.56
2022-11-18T03:39:49.625Z,998.60
2022-11-18T03:40:44.311Z,998.68
2022-11-18T03:41:30.288Z,998.57
2022-11-18T03:42:33.061Z,998.59
2022-11-18T03:43:33.988Z,998.62
2022-11-18T03:44:39.835Z,998.59
2022-11-18T03:45:34.000Z,998.58
2022-11-18T03:46:41.198Z,998.59
2022-11-18T03:47:46.110Z,998.63
2022-11-18T03:49:09.351Z,998.55
2022-11-18T03:49:40.887Z,998.59
2022-11-18T03:50:34.443Z,998.61
2022-11-18T03:51:37.625Z,998.64
2022-11-18T03:52:43.370Z,998.65
2022-11-18T03:53:38.557Z,998.68
2022-11-18T03:54:38.360Z,998.64
2022-11-18T03:55:35.298Z,998.69
2022-11-18T03:56:35.197Z,998.69
2022-11-18T03:57:34.184Z,998.72
2022-11-18T03:58:33.473Z,998.73
2022-11-18T03:59:37.778Z,998.72
2022-11-18T04:00:31.641Z,998.72
2022-11-18T04:01:35.816Z,998.78
2022-11-18T04:02:34.418Z,998.80
2022-11-18T04:03:36.169Z,998.76
2022-11-18T04:04:36.685Z,998.77
2022-11-18T04:05:40.480Z,998.78
2022-11-18T04:06:38.957Z,998.83
2022-11-18T04:07:38.867Z,998.80
2022-11-18T04:08:48.283Z,998.85
2022-11-18T04:09:43.990Z,998.81
2022-11-18T04:10:38.571Z,998.76
2022-11-18T04:11:47.382Z,998.79
2022-11-18T04:12:40.527Z,998.82
2022-11-18T04:13:35.112Z,998.85
2022-11-18T04:14:33.598Z,998.80
2022-11-18T04:15:37.691Z,998.82
2022-11-18T04:16:36.050Z,998.83
2022-11-18T04:17:44.963Z,998.88
2022-11-18T04:18:44.664Z,998.83
2022-11-18T04:19:31.972Z,998.87
2022-11-18T04:20:38.033Z,998.84
2022-11-18T04:21:32.600Z,998.83
2022-11-18T04:22:32.630Z,998.82
2022-11-18T04:23:38.552Z,998.86
2022-11-18T04:24:37.022Z,998.86
2022-11-18T04:25:35.497Z,998.88
2022-11-18T04:26:41.557Z,998.90
2022-11-18T04:27:32.538Z,998.86
2022-11-18T04:28:38.379Z,998.91
2022-11-18T04:29:47.304Z,998.90
2022-11-18T04:30:35.014Z,998.88
2022-11-18T04:31:31.747Z,998.92
2022-11-18T04:32:34.722Z,998.94
2022-11-18T04:33:34.218Z,998.96
2022-11-18T04:34:32.378Z,998.91
2022-11-18T04:35:45.187Z,998.94
2022-11-18T04:36:36.802Z,999.02
2022-11-18T04:37:34.957Z,999.02
2022-11-18T04:38:38.144Z,999.05
2022-11-18T04:39:36.098Z,999.04
2022-11-18T04:40:38.262Z,999.05
2022-11-18T04:41:29.767Z,999.05
2022-11-18T04:42:34.480Z,999.08
2022-11-18T04:43:39.608Z,999.06
2022-11-18T04:44:36.645Z,999.03
2022-11-18T04:45:36.552Z,999.09
2022-11-18T04:46:31.752Z,999.17
2022-11-18T04:47:34.314Z,999.11
2022-11-18T04:48:34.828Z,999.15
2022-11-18T04:49:37.599Z,999.11
2022-11-18T04:50:39.861Z,999.15
2022-11-18T04:51:31.982Z,999.23
2022-11-18T04:52:43.250Z,999.25
2022-11-18T04:53:37.319Z,999.23
2022-11-18T04:54:43.061Z,999.24
2022-11-18T04:55:41.224Z,999.28
2022-11-18T04:56:41.744Z,999.25
2022-11-18T04:57:36.632Z,999.23
2022-11-18T04:58:30.705Z,999.26
2022-11-18T04:59:34.702Z,999.32
2022-11-18T05:00:41.774Z,999.30
2022-11-18T05:01:37.322Z,999.31
2022-11-18T05:02:36.058Z,999.27
2022-11-18T05:03:35.543Z,999.31
2022-11-18T05:04:31.351Z,999.25
2022-11-18T05:05:39.860Z,999.29
2022-11-18T05:06:39.148Z,999.21
2022-11-18T05:07:29.992Z,999.26
2022-11-18T05:08:44.076Z,999.29
2022-11-18T05:09:47.978Z,999.26
2022-11-18T05:10:31.903Z,999.30
2022-11-18T05:11:40.308Z,999.28
2022-11-18T05:12:36.942Z,999.30
2022-11-18T05:13:33.462Z,999.30
2022-11-18T05:14:35.819Z,999.32
2022-11-18T05:15:35.419Z,999.30
2022-11-18T05:16:44.744Z,999.32
2022-11-18T05:17:32.563Z,999.29
2022-11-18T05:18:42.503Z,999.28
2022-11-18T05:19:38.824Z,999.36
2022-11-18T05:20:41.423Z,999.33
2022-11-18T05:21:44.583Z,999.34
2022-11-18T05:22:35.162Z,999.30
2022-11-18T05:23:37.211Z,999.33
2022-11-18T05:24:39.273Z,999.37
2022-11-18T05:25:42.146Z,999.34
2022-11-18T05:26:36.108Z,999.40
2022-11-18T05:27:37.856Z,999.40
2022-11-18T05:28:33.358Z,999.36
2022-11-18T05:29:45.139Z,999.36
2022-11-18T05:30:47.194Z,999.38
2022-11-18T05:31:37.372Z,999.34
2022-11-18T05:32:38.604Z,999.37
2022-11-18T05:33:43.631Z,999.40
2022-11-18T05:34:30.223Z,999.40
2022-11-18T05:35:43.131Z,999.42
2022-11-18T05:36:34.330Z,999.44
2022-11-18T05:37:38.645Z,999.47
2022-11-18T05:38:46.940Z,999.43
2022-11-18T05:39:30.869Z,999.49
2022-11-18T05:40:36.118Z,999.48
2022-11-18T05:41:41.842Z,999.47
2022-11-18T05:42:45.431Z,999.47
2022-11-18T05:43:37.448Z,999.48
2022-11-18T05:44:36.738Z,999.53
2022-11-18T05:45:31.634Z,999.56
2022-11-18T05:46:38.083Z,999.58
2022-11-18T05:47:38.148Z,999.61
2022-11-18T05:48:39.223Z,999.63
2022-11-18T05:49:35.142Z,999.64
2022-11-18T05:50:29.918Z,999.63
2022-11-18T05:51:37.501Z,999.75
2022-11-18T05:52:36.895Z,999.68
2022-11-18T05:53:39.152Z,999.75
2022-11-18T05:54:34.453Z,999.73
2022-11-18T05:55:40.395Z,999.73
2022-11-18T05:56:37.332Z,999.73
2022-11-18T05:57:39.080Z,999.77
2022-11-18T05:58:25.567Z,999.75
2022-11-18T05:59:36.018Z,999.80
2022-11-18T06:00:33.366Z,999.81
2022-11-18T06:01:35.623Z,999.82
2022-11-18T06:02:37.483Z,999.82
2022-11-18T06:03:32.432Z,999.84
2022-11-18T06:04:44.348Z,999.83
2022-11-18T06:05:39.849Z,999.82
2022-11-18T06:06:49.686Z,999.85
2022-11-18T06:07:32.157Z,999.92
2022-11-18T06:08:46.216Z,999.88
2022-11-18T06:09:41.618Z,999.92
2022-11-18T06:10:37.732Z,999.92
2022-11-18T06:11:46.857Z,999.93
2022-11-18T06:12:37.847Z,999.95
2022-11-18T06:13:50.346Z,999.91
2022-11-18T06:14:45.438Z,999.90
2022-11-18T06:15:34.087Z,999.97
2022-11-18T06:16:40.968Z,999.94
2022-11-18T06:17:44.026Z,999.99
2022-11-18T06:18:27.442Z,999.94
2022-11-18T06:19:31.032Z,1000.00
2022-11-18T06:20:38.311Z,999.99
2022-11-18T06:21:33.401Z,1000.02
2022-11-18T06:22:40.903Z,999.99
2022-11-18T06:23:34.091Z,1000.03
2022-11-18T06:24:39.464Z,1000.08
2022-11-18T06:25:32.414Z,1000.06
2022-11-18T06:26:39.886Z,1000.11
2022-11-18T06:27:37.539Z,1000.08
2022-11-18T06:28:30.293Z,1000.08
2022-11-18T06:29:40.009Z,1000.15
2022-11-18T06:30:44.727Z,1000.15
2022-11-18T06:31:32.446Z,1000.12
2022-11-18T06:32:33.273Z,1000.21
2022-11-18T06:33:50.392Z,1000.18
2022-11-18T06:34:41.222Z,1000.14
2022-11-18T06:35:34.519Z,1000.17
2022-11-18T06:36:27.357Z,1000.18
2022-11-18T06:37:37.913Z,1000.16
2022-11-18T06:38:32.695Z,1000.23
2022-11-18T06:39:38.573Z,1000.15
2022-11-18T06:40:48.687Z,1000.19
2022-11-18T06:41:46.147Z,1000.19
2022-11-18T06:42:38.970Z,1000.22
2022-11-18T06:43:35.805Z,1000.24
2022-11-18T06:44:29.357Z,1000.25
2022-11-18T06:45:33.772Z,1000.26
2022-11-18T06:46:35.823Z,1000.29
2022-11-18T06:47:36.851Z,1000.23
2022-11-18T06:48:42.489Z,1000.28
2022-11-18T06:49:40.862Z,1000.30
2022-11-18T06:50:29.396Z,1000.36
2022-11-18T06:51:24.486Z,1000.34
2022-11-18T06:52:35.554Z,1000.39
2022-11-18T06:53:43.148Z,1000.40
2022-11-18T06:54:37.077Z,1000.36
2022-11-18T06:55:41.617Z,1000.39
2022-11-18T06:56:44.908Z,1000.41
2022-11-18T06:57:37.230Z,1000.42
2022-11-18T06:58:37.265Z,1000.48
2022-11-18T06:59:23.493Z,1000.48
2022-11-18T07:00:37.282Z,1000.45
2022-11-18T07:01:28.134Z,1000.52
2022-11-18T07:02:43.812Z,1000.51
2022-11-18T07:03:36.266Z,1000.53
2022-11-18T07:04:40.977Z,1000.48
2022-11-18T07:05:33.085Z,1000.54
2022-11-18T07:06:45.269Z,1000.53
2022-11-18T07:07:42.807Z,1000.56
2022-11-18T07:08:40.901Z,1000.52
2022-11-18T07:09:54.311Z,1000.59
2022-11-18T07:10:41.268Z,1000.59
2022-11-18T07:11:36.770Z,1000.57
2022-11-18T07:12:32.001Z,1000.61
2022-11-18T07:14:00.387Z,1000.55
2022-11-18T07:14:40.615Z,1000.60
2022-11-18T07:15:50.266Z,1000.64
2022-11-18T07:16:58.447Z,1000.62
2022-11-18T07:17:45.859Z,1000.65
2022-11-18T07:18:36.447Z,1000.62
2022-11-18T07:19:39.524Z,1000.64
2022-11-18T07:20:47.739Z,1000.66
2022-11-18T07:21:37.387Z,1000.62
2022-11-18T07:22:35.958Z,1000.62
2022-11-18T07:23:35.864Z,1000.63
2022-11-18T07:24:31.161Z,1000.66
2022-11-18T07:25:25.741Z,1000.66
2022-11-18T07:26:34.763Z,1000.68
2022-11-18T07:27:28.932Z,1000.70
2022-11-18T07:28:31.187Z,1000.77
2022-11-18T07:29:40.001Z,1000.74
2022-11-18T07:30:30.999Z,1000.73
2022-11-18T07:31:31.722Z,1000.79
2022-11-18T07:32:30.291Z,1000.77
2022-11-18T07:33:45.347Z,1000.77
2022-11-18T07:34:35.118Z,1000.72
2022-11-18T07:35:34.202Z,1000.75
2022-11-18T07:36:41.902Z,1000.78
2022-11-18T07:37:30.428Z,1000.73
2022-11-18T07:38:30.741Z,1000.71
2022-11-18T07:39:33.919Z,1000.76
2022-11-18T07:40:25.021Z,1000.75
2022-11-18T07:41:33.116Z,1000.73
2022-11-18T07:42:34.966Z,1000.79
2022-11-18T07:43:32.722Z,1000.78
2022-11-18T07:44:28.939Z,1000.80
2022-11-18T07:45:34.883Z,1000.84
2022-11-18T07:46:23.728Z,1000.82
2022-11-18T07:47:44.932Z,1000.81
2022-11-18T07:48:44.327Z,1000.86
2022-11-18T07:49:34.399Z,1000.86
2022-11-18T07:50:35.443Z,1000.94
2022-11-18T07:51:39.435Z,1000.89
2022-11-18T07:52:40.563Z,1000.90
2022-11-18T07:53:51.042Z,1000.85
2022-11-18T07:54:30.542Z,1000.89
2022-11-18T07:55:32.196Z,1000.92
2022-11-18T07:56:33.625Z,1000.94
2022-11-18T07:57:33.535Z,1001.01
2022-11-18T07:58:33.641Z,1000.94
2022-11-18T07:59:37.404Z,1000.91
2022-11-18T08:00:45.735Z,1000.89
2022-11-18T08:01:37.842Z,1000.97
2022-11-18T08:02:36.845Z,1001.08
2022-11-18T08:03:36.928Z,1001.04
2022-11-18T08:04:39.561Z,1001.03
2022-11-18T08:05:41.707Z,1001.02
2022-11-18T08:06:32.875Z,1001.05
2022-11-18T08:07:34.770Z,1001.04
2022-11-18T08:08:38.940Z,1001.07
2022-11-18T08:09:34.633Z,1001.07
2022-11-18T08:10:46.013Z,1001.08
2022-11-18T08:11:50.214Z,1001.05
2022-11-18T08:12:35.781Z,1001.03
2022-11-18T08:13:43.992Z,1001.02
2022-11-18T08:14:43.475Z,1001.09
2022-11-18T08:15:47.269Z,1001.04
2022-11-18T08:16:32.836Z,1001.07
2022-11-18T08:17:42.774Z,1001.08
2022-11-18T08:18:33.366Z,1001.12
2022-11-18T08:19:34.802Z,1001.05
2022-11-18T08:20:40.965Z,1001.12
2022-11-18T08:21:38.404Z,1001.05
2022-11-18T08:22:41.057Z,1001.08
2022-11-18T08:23:47.339Z,1001.11
2022-11-18T08:24:32.586Z,1001.14
2022-11-18T08:25:40.988Z,1001.13
2022-11-18T08:26:48.091Z,1001.12
2022-11-18T08:27:48.316Z,1001.19
2022-11-18T08:28:38.444Z,1001.19
2022-11-18T08:29:35.326Z,1001.18
2022-11-18T08:30:44.811Z,1001.11
2022-11-18T08:31:30.602Z,1001.13
2022-11-18T08:32:42.165Z,1001.20
2022-11-18T08:33:42.472Z,1001.23
2022-11-18T08:34:38.094Z,1001.19
2022-11-18T08:35:53.878Z,1001.27
2022-11-18T08:36:39.741Z,1001.26
2022-11-18T08:37:43.326Z,1001.32
2022-11-18T08:38:44.057Z,1001.30
2022-11-18T08:39:44.475Z,1001.30
2022-11-18T08:40:42.213Z,1001.30
2022-11-18T08:41:45.189Z,1001.33
2022-11-18T08:42:39.478Z,1001.33
2022-11-18T08:43:38.360Z,1001.35
2022-11-18T08:44:38.766Z,1001.39
2022-11-18T08:45:56.717Z,1001.40
2022-11-18T08:46:39.991Z,1001.42
2022-11-18T08:47:58.134Z,1001.44
2022-11-18T08:48:38.071Z,1001.47
2022-11-18T08:49:32.707Z,1001.53
2022-11-18T08:50:37.674Z,1001.52
2022-11-18T08:51:34.813Z,1001.58
2022-11-18T08:52:42.404Z,1001.59
2022-11-18T08:53:51.935Z,1001.55
2022-11-18T08:54:44.464Z,1001.52
2022-11-18T08:55:34.431Z,1001.53
2022-11-18T08:56:35.877Z,1001.56
2022-11-18T08:57:31.880Z,1001.61
2022-11-18T08:58:30.047Z,1001.59
2022-11-18T08:59:31.281Z,1001.65
2022-11-18T09:00:41.312Z,1001.64
2022-11-18T09:01:40.044Z,1001.62
2022-11-18T09:02:35.398Z,1001.67
2022-11-18T09:03:32.742Z,1001.61
2022-11-18T09:04:31.625Z,1001.74
2022-11-18T09:05:33.780Z,1001.70
2022-11-18T09:06:34.477Z,1001.78
2022-11-18T09:07:38.345Z,1001.80
2022-11-18T09:08:41.332Z,1001.79
2022-11-18T09:09:37.828Z,1001.84
2022-11-18T09:10:40.065Z,1001.77
2022-11-18T09:11:34.742Z,1001.73
2022-11-18T09:12:30.035Z,1001.83
2022-11-18T09:13:47.590Z,1001.83
2022-11-18T09:15:11.958Z,1001.90
2022-11-18T09:15:35.993Z,1001.84
2022-11-18T09:16:34.470Z,1001.85
